createdAt,value
2022-09-04T00:01:38.769Z,101019.72
2022-09-04T00:04:32.012Z,101024.09
2022-09-04T00:06:42.810Z,101027.63
2022-09-04T00:08:47.400Z,101026.78
2022-09-04T00:11:15.268Z,101016.28
2022-09-04T00:13:29.030Z,101023.31
2022-09-04T00:15:36.521Z,101016.41
2022-09-04T00:18:03.002Z,101025.13
2022-09-04T00:20:14.233Z,101025.16
2022-09-04T00:22:33.759Z,101024.28
2022-09-04T00:24:40.088Z,101025.16
2022-09-04T00:26:41.957Z,101018.19
2022-09-04T00:29:01.267Z,101026.88
2022-09-04T00:31:29.157Z,101027.75
2022-09-04T00:33:49.890Z,101028.63
2022-09-04T00:35:57.905Z,101034.69
2022-09-04T00:38:21.501Z,101028.69
2022-09-04T00:40:37.747Z,101029.44
2022-09-04T00:43:10.758Z,101034.69
2022-09-04T00:45:42.044Z,101029.50
2022-09-04T00:48:31.989Z,101044.28
2022-09-04T00:51:15.188Z,101041.69
2022-09-04T00:53:36.332Z,101047.88
2022-09-04T00:55:54.165Z,101051.34
2022-09-04T00:58:33.354Z,101052.22
2022-09-04T01:00:36.561Z,101053.94
2022-09-04T01:02:47.181Z,101060.97
2022-09-04T01:05:19.835Z,101059.16
2022-09-04T01:07:48.327Z,101055.66
2022-09-04T01:10:31.108Z,101059.28
2022-09-04T01:12:40.579Z,101054.97
2022-09-04T01:14:48.645Z,101060.16
2022-09-04T01:17:06.331Z,101053.31
2022-09-04T01:19:41.640Z,101052.41
2022-09-04T01:21:46.171Z,101056.72
2022-09-04T01:24:15.333Z,101057.63
2022-09-04T01:26:35.559Z,101058.47
2022-09-04T01:28:53.333Z,101058.53
2022-09-04T01:31:08.202Z,101058.47
2022-09-04T01:33:27.760Z,101051.59
2022-09-04T01:35:44.589Z,101056.81
2022-09-04T01:37:58.620Z,101048.97
2022-09-04T01:40:23.828Z,101053.34
2022-09-04T01:42:56.375Z,101056.00
2022-09-04T01:44:58.051Z,101054.19
2022-09-04T01:47:40.225Z,101050.72
2022-09-04T01:50:01.943Z,101056.88
2022-09-04T01:52:21.828Z,101054.28
2022-09-04T01:54:50.376Z,101049.84
2022-09-04T01:57:03.246Z,101054.28
2022-09-04T01:59:27.203Z,101059.50
2022-09-04T02:01:48.670Z,101063.81
2022-09-04T02:03:54.465Z,101060.38
2022-09-04T02:06:37.238Z,101060.31
2022-09-04T02:09:02.948Z,101065.59
2022-09-04T02:11:15.288Z,101057.69
2022-09-04T02:13:29.498Z,101064.81
2022-09-04T02:16:10.601Z,101067.31
2022-09-04T02:19:01.247Z,101062.94
2022-09-04T02:21:13.636Z,101066.38
2022-09-04T02:23:26.725Z,101062.03
2022-09-04T02:25:56.388Z,101062.94
2022-09-04T02:28:45.820Z,101059.44
2022-09-04T02:31:02.687Z,101070.72
2022-09-04T02:33:19.370Z,101066.38
2022-09-04T02:35:37.020Z,101067.28
2022-09-04T02:38:27.878Z,101070.81
2022-09-04T02:40:54.073Z,101064.66
2022-09-04T02:43:10.931Z,101074.19
2022-09-04T02:45:45.921Z,101077.66
2022-09-04T02:47:55.754Z,101067.25
2022-09-04T02:50:30.776Z,101066.38
2022-09-04T02:52:56.655Z,101069.00
2022-09-04T02:55:14.461Z,101069.88
2022-09-04T02:57:40.777Z,101071.56
2022-09-04T03:00:26.041Z,101068.13
2022-09-04T03:02:33.792Z,101067.28
2022-09-04T03:04:59.159Z,101073.38
2022-09-04T03:07:10.020Z,101076.03
2022-09-04T03:09:47.101Z,101067.28
2022-09-04T03:12:00.866Z,101069.94
2022-09-04T03:14:05.340Z,101069.97
2022-09-04T03:16:15.808Z,101075.16
2022-09-04T03:18:54.846Z,101066.44
2022-09-04T03:21:12.479Z,101079.41
2022-09-04T03:23:32.859Z,101079.47
2022-09-04T03:26:11.291Z,101076.88
2022-09-04T03:28:24.936Z,101076.84
2022-09-04T03:30:28.846Z,101078.59
2022-09-04T03:32:33.500Z,101069.94
2022-09-04T03:35:17.621Z,101061.19
2022-09-04T03:37:46.968Z,101069.03
2022-09-04T03:40:20.598Z,101068.13
2022-09-04T03:42:25.354Z,101073.41
2022-09-04T03:44:52.372Z,101069.88
2022-09-04T03:46:54.190Z,101070.75
2022-09-04T03:49:09.543Z,101074.19
2022-09-04T03:51:25.684Z,101076.84
2022-09-04T03:53:49.984Z,101080.34
2022-09-04T03:56:26.600Z,101078.63
2022-09-04T03:58:59.857Z,101082.09
2022-09-04T04:01:25.368Z,101075.13
2022-09-04T04:03:40.179Z,101073.41
2022-09-04T04:06:16.028Z,101079.41
2022-09-04T04:08:56.753Z,101082.13
2022-09-04T04:11:26.352Z,101075.16
2022-09-04T04:14:05.244Z,101076.88
2022-09-04T04:16:24.475Z,101082.09
2022-09-04T04:18:39.231Z,101072.56
2022-09-04T04:21:13.138Z,101079.53
2022-09-04T04:23:24.885Z,101083.88
2022-09-04T04:25:48.870Z,101086.38
2022-09-04T04:28:36.013Z,101084.63
2022-09-04T04:30:52.664Z,101089.03
2022-09-04T04:33:20.961Z,101092.47
2022-09-04T04:36:17.759Z,101081.16
2022-09-04T04:38:30.726Z,101089.03
2022-09-04T04:40:45.380Z,101095.13
2022-09-04T04:43:12.967Z,101084.72
2022-09-04T04:45:55.520Z,101089.91
2022-09-04T04:48:31.875Z,101084.66
2022-09-04T04:51:05.371Z,101088.97
2022-09-04T04:53:25.004Z,101092.47
2022-09-04T04:55:35.173Z,101087.19
2022-09-04T04:57:54.366Z,101088.94
2022-09-04T05:00:08.240Z,101098.50
2022-09-04T05:02:31.194Z,101097.66
2022-09-04T05:04:58.255Z,101097.63
2022-09-04T05:07:34.740Z,101100.19
2022-09-04T05:09:51.497Z,101104.59
2022-09-04T05:12:18.090Z,101108.91
2022-09-04T05:15:02.053Z,101104.56
2022-09-04T05:17:18.367Z,101106.38
2022-09-04T05:19:45.190Z,101111.56
2022-09-04T05:22:04.350Z,101113.31
2022-09-04T05:24:34.274Z,101122.88
2022-09-04T05:26:35.936Z,101120.25
2022-09-04T05:28:50.119Z,101124.63
2022-09-04T05:31:14.122Z,101119.41
2022-09-04T05:33:29.221Z,101117.66
2022-09-04T05:35:38.269Z,101120.22
2022-09-04T05:37:45.236Z,101122.78
2022-09-04T05:40:23.557Z,101133.25
2022-09-04T05:42:34.040Z,101129.75
2022-09-04T05:44:59.982Z,101128.00
2022-09-04T05:47:11.689Z,101126.34
2022-09-04T05:49:45.903Z,101128.06
2022-09-04T05:52:03.840Z,101125.56
2022-09-04T05:54:44.749Z,101133.34
2022-09-04T05:57:05.116Z,101141.97
2022-09-04T05:59:26.256Z,101146.34
2022-09-04T06:01:55.748Z,101151.56
2022-09-04T06:04:06.675Z,101160.19
2022-09-04T06:06:20.522Z,101152.38
2022-09-04T06:08:54.651Z,101155.88
2022-09-04T06:11:06.775Z,101156.72
2022-09-04T06:13:23.975Z,101166.28
2022-09-04T06:15:53.364Z,101165.47
2022-09-04T06:18:21.106Z,101171.50
2022-09-04T06:20:43.152Z,101169.72
2022-09-04T06:22:55.006Z,101174.03
2022-09-04T06:25:25.670Z,101176.66
2022-09-04T06:27:27.347Z,101180.13
2022-09-04T06:29:35.646Z,101174.91
2022-09-04T06:31:43.390Z,101176.63
2022-09-04T06:34:20.272Z,101178.38
2022-09-04T06:36:35.960Z,101178.28
2022-09-04T06:39:16.065Z,101179.25
2022-09-04T06:41:36.236Z,101183.56
2022-09-04T06:44:02.339Z,101174.84
2022-09-04T06:46:27.469Z,101179.19
2022-09-04T06:49:06.023Z,101173.13
2022-09-04T06:51:27.177Z,101180.91
2022-09-04T06:53:31.920Z,101178.38
2022-09-04T06:55:49.609Z,101185.28
2022-09-04T06:58:19.846Z,101184.47
2022-09-04T07:00:21.969Z,101185.25
2022-09-04T07:02:54.970Z,101185.25
2022-09-04T07:05:06.238Z,101187.00
2022-09-04T07:07:26.158Z,101188.72
2022-09-04T07:09:42.025Z,101195.75
2022-09-04T07:11:57.495Z,101187.06
2022-09-04T07:14:17.009Z,101190.53
2022-09-04T07:16:36.426Z,101188.75
2022-09-04T07:18:56.378Z,101198.25
2022-09-04T07:21:19.681Z,101193.94
2022-09-04T07:23:49.167Z,101203.50
2022-09-04T07:26:35.313Z,101208.69
2022-09-04T07:29:07.241Z,101201.72
2022-09-04T07:31:38.877Z,101200.88
2022-09-04T07:34:08.256Z,101213.03
2022-09-04T07:36:37.315Z,101206.06
2022-09-04T07:38:52.461Z,101215.66
2022-09-04T07:41:02.424Z,101217.31
2022-09-04T07:43:35.046Z,101218.19
2022-09-04T07:45:48.781Z,101215.53
2022-09-04T07:48:41.320Z,101230.28
2022-09-04T07:51:21.598Z,101230.28
2022-09-04T07:53:31.951Z,101232.88
2022-09-04T07:55:40.590Z,101228.47
2022-09-04T07:58:02.500Z,101220.59
2022-09-04T08:00:05.067Z,101227.56
2022-09-04T08:02:06.811Z,101228.41
2022-09-04T08:04:44.516Z,101231.84
2022-09-04T08:06:56.973Z,101229.25
2022-09-04T08:09:04.650Z,101230.03
2022-09-04T08:11:15.267Z,101236.97
2022-09-04T08:14:00.463Z,101236.03
2022-09-04T08:16:19.038Z,101236.00
2022-09-04T08:18:39.051Z,101229.00
2022-09-04T08:21:02.532Z,101237.72
2022-09-04T08:23:36.942Z,101238.59
2022-09-04T08:26:12.254Z,101233.31
2022-09-04T08:28:57.071Z,101232.44
2022-09-04T08:31:26.468Z,101238.50
2022-09-04T08:33:28.358Z,101245.56
2022-09-04T08:35:52.684Z,101245.50
2022-09-04T08:38:12.662Z,101245.47
2022-09-04T08:40:26.104Z,101254.19
2022-09-04T08:42:46.355Z,101252.38
2022-09-04T08:45:15.431Z,101245.41
2022-09-04T08:47:32.798Z,101260.13
2022-09-04T08:50:04.624Z,101259.13
2022-09-04T08:52:24.917Z,101260.78
2022-09-04T08:54:59.142Z,101256.41
2022-09-04T08:57:12.688Z,101262.47
2022-09-04T08:59:17.195Z,101265.81
2022-09-04T09:01:34.416Z,101280.66
2022-09-04T09:04:06.357Z,101273.78
2022-09-04T09:06:26.723Z,101273.69
2022-09-04T09:08:56.425Z,101281.69
2022-09-04T09:11:15.445Z,101284.06
2022-09-04T09:13:45.387Z,101280.53
2022-09-04T09:16:24.125Z,101297.16
2022-09-04T09:18:40.508Z,101285.75
2022-09-04T09:20:54.519Z,101289.25
2022-09-04T09:23:18.383Z,101292.72
2022-09-04T09:25:25.142Z,101301.50
2022-09-04T09:27:29.859Z,101304.16
2022-09-04T09:30:02.292Z,101309.19
2022-09-04T09:32:41.880Z,101302.97
2022-09-04T09:35:01.825Z,101312.59
2022-09-04T09:37:12.527Z,101320.44
2022-09-04T09:39:17.048Z,101325.66
2022-09-04T09:41:24.486Z,101325.47
2022-09-04T09:43:46.479Z,101320.28
2022-09-04T09:46:12.917Z,101320.25
2022-09-04T09:48:41.413Z,101326.16
2022-09-04T09:50:52.032Z,101331.50
2022-09-04T09:53:47.564Z,101329.63
2022-09-04T09:56:14.088Z,101330.53
2022-09-04T09:58:45.146Z,101335.84
2022-09-04T10:01:08.276Z,101336.59
2022-09-04T10:03:39.725Z,101321.75
2022-09-04T10:06:20.184Z,101328.69
2022-09-04T10:08:55.618Z,101330.38
2022-09-04T10:10:57.297Z,101338.41
2022-09-04T10:13:27.830Z,101335.75
2022-09-04T10:16:04.632Z,101326.91
2022-09-04T10:18:32.950Z,101322.44
2022-09-04T10:21:13.158Z,101328.41
2022-09-04T10:23:20.949Z,101339.75
2022-09-04T10:25:55.087Z,101334.41
2022-09-04T10:28:34.922Z,101331.75
2022-09-04T10:31:13.990Z,101326.41
2022-09-04T10:33:32.856Z,101342.25
2022-09-04T10:35:44.051Z,101336.88
2022-09-04T10:38:07.447Z,101338.50
2022-09-04T10:40:43.750Z,101337.66
2022-09-04T10:42:56.053Z,101340.34
2022-09-04T10:45:00.501Z,101344.66
2022-09-04T10:47:14.345Z,101341.22
2022-09-04T10:49:34.449Z,101338.59
2022-09-04T10:51:59.080Z,101334.09
2022-09-04T10:54:30.444Z,101336.50
2022-09-04T10:56:59.854Z,101346.22
2022-09-04T10:59:21.384Z,101353.88
2022-09-04T11:01:34.294Z,101339.91
2022-09-04T11:03:58.783Z,101350.44
2022-09-04T11:06:38.105Z,101339.91
2022-09-04T11:09:00.847Z,101340.72
2022-09-04T11:11:14.259Z,101340.72
2022-09-04T11:13:31.135Z,101340.59
2022-09-04T11:16:04.093Z,101336.81
2022-09-04T11:18:26.318Z,101340.19
2022-09-04T11:20:45.308Z,101342.63
2022-09-04T11:23:24.771Z,101342.66
2022-09-04T11:26:25.039Z,101349.53
2022-09-04T11:29:03.855Z,101345.81
2022-09-04T11:31:38.297Z,101346.88
2022-09-04T11:33:48.953Z,101345.59
2022-09-04T11:35:59.642Z,101342.28
2022-09-04T11:38:10.658Z,101357.13
2022-09-04T11:40:32.289Z,101349.34
2022-09-04T11:42:56.178Z,101351.66
2022-09-04T11:45:23.716Z,101349.84
2022-09-04T11:48:03.254Z,101355.22
2022-09-04T11:50:23.939Z,101355.00
2022-09-04T11:52:28.364Z,101350.47
2022-09-04T11:54:45.607Z,101351.31
2022-09-04T11:57:12.442Z,101352.06
2022-09-04T11:59:55.476Z,101347.69
2022-09-04T12:02:18.918Z,101348.91
2022-09-04T12:04:40.978Z,101353.28
2022-09-04T12:07:17.125Z,101351.41
2022-09-04T12:09:38.996Z,101352.19
2022-09-04T12:12:11.163Z,101350.53
2022-09-04T12:14:53.102Z,101356.78
2022-09-04T12:17:25.763Z,101354.78
2022-09-04T12:19:52.356Z,101359.97
2022-09-04T12:22:15.443Z,101362.06
2022-09-04T12:24:41.706Z,101350.38
2022-09-04T12:26:59.709Z,101359.69
2022-09-04T12:29:20.546Z,101363.13
2022-09-04T12:31:32.528Z,101355.09
2022-09-04T12:34:06.557Z,101346.09
2022-09-04T12:36:38.559Z,101349.81
2022-09-04T12:39:31.724Z,101351.75
2022-09-04T12:42:01.909Z,101356.97
2022-09-04T12:44:25.500Z,101367.56
2022-09-04T12:47:00.757Z,101357.44
2022-09-04T12:49:23.096Z,101365.38
2022-09-04T12:51:44.050Z,101355.91
2022-09-04T12:54:24.986Z,101360.28
2022-09-04T12:56:37.206Z,101353.44
2022-09-04T12:58:49.383Z,101360.31
2022-09-04T13:01:08.587Z,101353.25
2022-09-04T13:03:29.961Z,101354.84
2022-09-04T13:05:52.814Z,101360.00
2022-09-04T13:08:26.678Z,101363.41
2022-09-04T13:10:41.387Z,101367.06
2022-09-04T13:13:05.905Z,101365.09
2022-09-04T13:15:19.504Z,101361.59
2022-09-04T13:17:44.738Z,101358.94
2022-09-04T13:20:13.147Z,101361.44
2022-09-04T13:22:53.714Z,101362.09
2022-09-04T13:25:27.372Z,101360.06
2022-09-04T13:27:58.746Z,101365.31
2022-09-04T13:30:30.296Z,101358.09
2022-09-04T13:32:50.883Z,101367.69
2022-09-04T13:34:58.927Z,101356.22
2022-09-04T13:37:29.353Z,101360.53
2022-09-04T13:40:09.529Z,101351.63
2022-09-04T13:42:39.820Z,101352.06
2022-09-04T13:45:02.874Z,101361.59
2022-09-04T13:47:32.974Z,101365.66
2022-09-04T13:49:44.413Z,101363.03
2022-09-04T13:51:53.871Z,101349.03
2022-09-04T13:54:05.212Z,101350.28
2022-09-04T13:56:16.290Z,101350.81
2022-09-04T13:58:27.488Z,101348.47
2022-09-04T14:00:45.997Z,101352.91
2022-09-04T14:02:55.940Z,101356.09
2022-09-04T14:05:23.231Z,101353.97
2022-09-04T14:07:29.826Z,101346.56
2022-09-04T14:09:42.525Z,101353.06
2022-09-04T14:12:14.391Z,101343.94
2022-09-04T14:14:41.427Z,101335.50
2022-09-04T14:16:44.576Z,101338.72
2022-09-04T14:19:00.179Z,101341.31
2022-09-04T14:21:17.023Z,101334.03
2022-09-04T14:23:47.540Z,101338.19
2022-09-04T14:26:04.094Z,101335.72
2022-09-04T14:28:32.113Z,101328.47
2022-09-04T14:30:50.853Z,101327.06
2022-09-04T14:33:28.410Z,101332.78
2022-09-04T14:35:46.986Z,101330.00
2022-09-04T14:38:27.968Z,101325.91
2022-09-04T14:41:25.901Z,101315.84
2022-09-04T14:43:49.048Z,101321.00
2022-09-04T14:45:51.939Z,101316.38
2022-09-04T14:48:06.621Z,101310.19
2022-09-04T14:50:23.371Z,101312.25
2022-09-04T14:52:47.949Z,101320.53
2022-09-04T14:55:02.612Z,101315.53
2022-09-04T14:57:17.904Z,101314.91
2022-09-04T14:59:31.526Z,101307.78
2022-09-04T15:01:39.452Z,101315.00
2022-09-04T15:03:49.237Z,101314.91
2022-09-04T15:05:58.618Z,101316.97
2022-09-04T15:08:03.934Z,101310.94
2022-09-04T15:10:27.494Z,101318.28
2022-09-04T15:12:39.273Z,101312.81
2022-09-04T15:15:08.517Z,101316.31
2022-09-04T15:17:26.230Z,101307.38
2022-09-04T15:19:41.062Z,101306.00
2022-09-04T15:21:57.064Z,101308.44
2022-09-04T15:24:24.544Z,101302.53
2022-09-04T15:27:06.947Z,101306.34
2022-09-04T15:29:27.903Z,101324.34
2022-09-04T15:31:41.940Z,101311.19
2022-09-04T15:33:47.780Z,101313.94
2022-09-04T15:36:21.091Z,101315.75
2022-09-04T15:38:28.114Z,101324.06
2022-09-04T15:41:05.693Z,101321.53
2022-09-04T15:43:32.309Z,101312.56
2022-09-04T15:45:52.084Z,101322.44
2022-09-04T15:48:16.146Z,101316.03
2022-09-04T15:50:22.897Z,101319.53
2022-09-04T15:52:51.181Z,101316.91
2022-09-04T15:55:02.574Z,101315.13
2022-09-04T15:57:10.619Z,101321.53
2022-09-04T15:59:27.832Z,101323.63
2022-09-04T16:01:51.423Z,101327.38
2022-09-04T16:04:23.523Z,101319.13
2022-09-04T16:06:32.646Z,101330.81
2022-09-04T16:08:50.373Z,101329.72
2022-09-04T16:11:33.968Z,101326.06
2022-09-04T16:13:45.905Z,101335.31
2022-09-04T16:15:48.462Z,101341.00
2022-09-04T16:17:55.878Z,101340.34
2022-09-04T16:20:01.132Z,101326.75
2022-09-04T16:22:02.910Z,101333.84
2022-09-04T16:24:11.927Z,101333.53
2022-09-04T16:26:31.282Z,101323.06
2022-09-04T16:28:39.469Z,101322.63
2022-09-04T16:30:58.279Z,101326.41
2022-09-04T16:33:01.692Z,101327.31
2022-09-04T16:35:15.232Z,101333.63
2022-09-04T16:37:33.440Z,101325.16
2022-09-04T16:39:56.299Z,101325.09
2022-09-04T16:42:25.715Z,101323.97
2022-09-04T16:44:38.824Z,101321.34
2022-09-04T16:47:05.696Z,101322.22
2022-09-04T16:49:20.371Z,101328.19
2022-09-04T16:51:40.189Z,101323.66
2022-09-04T16:54:04.322Z,101323.66
2022-09-04T16:56:21.454Z,101322.09
2022-09-04T16:58:37.644Z,101317.75
2022-09-04T17:01:14.300Z,101317.59
2022-09-04T17:03:25.410Z,101315.00
2022-09-04T17:05:35.346Z,101315.78
2022-09-04T17:07:44.208Z,101320.97
2022-09-04T17:09:57.842Z,101320.34
2022-09-04T17:12:24.282Z,101316.72
2022-09-04T17:14:46.180Z,101308.13
2022-09-04T17:17:00.542Z,101312.56
2022-09-04T17:19:03.492Z,101304.59
2022-09-04T17:28:52.149Z,101298.56
2022-09-04T17:29:03.907Z,101313.50
2022-09-04T17:29:17.545Z,101321.25
2022-09-04T17:29:46.282Z,101319.22
2022-09-04T17:31:48.805Z,101309.88
2022-09-04T17:40:33.087Z,101315.31
2022-09-04T17:40:40.546Z,101313.59
2022-09-04T17:40:42.578Z,101313.81
2022-09-04T17:42:30.168Z,101319.06
2022-09-04T17:44:46.878Z,101320.88
2022-09-04T17:47:04.728Z,101322.84
2022-09-04T17:49:34.202Z,101315.88
2022-09-04T17:51:36.867Z,101323.09
2022-09-04T17:53:48.758Z,101319.81
2022-09-04T17:55:56.510Z,101311.81
2022-09-04T17:58:10.833Z,101314.56
2022-09-04T18:00:26.079Z,101317.84
2022-09-04T18:02:42.727Z,101317.16
2022-09-04T18:05:29.273Z,101315.63
2022-09-04T18:08:09.870Z,101317.34
2022-09-04T18:10:37.496Z,101330.56
2022-09-04T18:13:36.931Z,101327.19
2022-09-04T18:15:43.215Z,101329.09
2022-09-04T18:17:54.746Z,101329.00
2022-09-04T18:20:07.951Z,101333.53
2022-09-04T18:23:15.596Z,101324.69
2022-09-04T18:25:56.022Z,101328.13
2022-09-04T18:28:09.642Z,101329.84
2022-09-04T18:37:05.561Z,101319.28
2022-09-04T18:37:17.023Z,101320.38
2022-09-04T18:37:20.788Z,101325.88
2022-09-04T18:38:14.796Z,101329.19
2022-09-04T18:41:53.018Z,101326.75
2022-09-04T18:50:20.428Z,101326.00
2022-09-04T18:50:34.465Z,101322.25
2022-09-04T18:50:46.757Z,101333.59
2022-09-04T18:51:01.949Z,101331.47
2022-09-04T18:53:19.917Z,101335.13
2022-09-04T18:55:57.881Z,101334.00
2022-09-04T18:58:08.546Z,101337.53
2022-09-04T19:00:11.502Z,101338.63
2022-09-04T19:02:24.729Z,101333.34
2022-09-04T19:05:14.527Z,101332.50
2022-09-04T19:07:31.830Z,101340.53
2022-09-04T19:10:06.705Z,101336.13
2022-09-04T19:12:13.739Z,101332.53
2022-09-04T19:14:24.248Z,101321.88
2022-09-04T19:16:34.612Z,101326.16
2022-09-04T19:18:43.851Z,101322.63
2022-09-04T19:20:54.410Z,101312.97
2022-09-04T19:23:15.137Z,101319.84
2022-09-04T19:25:29.296Z,101325.13
2022-09-04T19:27:38.297Z,101323.38
2022-09-04T19:30:18.795Z,101332.38
2022-09-04T19:32:45.724Z,101330.63
2022-09-04T19:35:15.531Z,101334.19
2022-09-04T19:39:04.828Z,101328.09
2022-09-04T19:45:56.852Z,101324.53
2022-09-04T19:46:16.781Z,101320.94
2022-09-04T19:46:18.624Z,101319.31
2022-09-04T19:48:07.793Z,101321.88
2022-09-04T19:53:18.472Z,101316.94
2022-09-04T19:53:23.204Z,101317.72
2022-09-04T19:55:25.174Z,101317.91
2022-09-04T19:57:42.549Z,101316.25
2022-09-04T20:00:43.113Z,101320.63
2022-09-04T20:03:13.507Z,101319.72
2022-09-04T20:05:33.242Z,101307.69
2022-09-04T20:07:45.042Z,101303.16
2022-09-04T20:09:59.733Z,101297.13
2022-09-04T20:12:12.058Z,101298.84
2022-09-04T20:14:30.773Z,101302.44
2022-09-04T20:16:48.255Z,101294.56
2022-09-04T20:19:18.132Z,101299.81
2022-09-04T20:21:59.939Z,101298.00
2022-09-04T20:24:11.382Z,101298.09
2022-09-04T20:26:28.822Z,101299.88
2022-09-04T20:28:48.390Z,101301.63
2022-09-04T20:31:35.202Z,101301.72
2022-09-04T20:33:40.967Z,101292.91
2022-09-04T20:35:52.798Z,101292.84
2022-09-04T20:37:59.956Z,101305.31
2022-09-04T20:40:19.281Z,101300.81
2022-09-04T20:43:04.363Z,101292.97
2022-09-04T20:47:05.018Z,101300.91
2022-09-04T20:52:43.906Z,101298.41
2022-09-04T20:52:58.059Z,101294.94
2022-09-04T20:53:17.974Z,101290.47
2022-09-04T20:55:52.454Z,101288.66
2022-09-04T21:03:05.537Z,101285.19
2022-09-04T21:03:22.836Z,101278.31
2022-09-04T21:03:28.899Z,101291.47
2022-09-04T21:06:10.678Z,101288.06
2022-09-04T21:08:35.351Z,101282.75
2022-09-04T21:10:50.181Z,101285.53
2022-09-04T21:13:14.510Z,101288.00
2022-09-04T21:15:48.374Z,101279.44
2022-09-04T21:18:18.058Z,101272.44
2022-09-04T21:20:46.681Z,101264.44
2022-09-04T21:23:39.058Z,101268.88
2022-09-04T21:26:22.527Z,101261.75
2022-09-04T21:29:09.118Z,101268.88
2022-09-04T21:31:49.954Z,101268.00
2022-09-04T21:34:22.158Z,101269.63
2022-09-04T21:36:38.214Z,101268.88
2022-09-04T21:38:54.060Z,101268.94
2022-09-04T21:41:29.406Z,101261.88
2022-09-04T21:43:49.634Z,101264.59
2022-09-04T21:46:04.621Z,101265.44
2022-09-04T21:48:17.828Z,101257.41
2022-09-04T21:50:44.805Z,101253.94
2022-09-04T21:53:15.011Z,101253.94
2022-09-04T22:00:54.813Z,101252.28
2022-09-04T22:02:30.336Z,101252.16
2022-09-04T22:02:38.829Z,101252.16
2022-09-04T22:03:15.266Z,101242.63
2022-09-04T22:05:21.765Z,101250.41
2022-09-04T22:12:13.081Z,101242.56
2022-09-04T22:13:28.797Z,101239.94
2022-09-04T22:13:33.775Z,101240.94
2022-09-04T22:15:07.431Z,101240.06
2022-09-04T22:17:30.032Z,101236.53
2022-09-04T22:19:52.914Z,101240.03
2022-09-04T22:22:03.906Z,101237.50
2022-09-04T22:24:41.510Z,101236.50
2022-09-04T22:26:43.151Z,101236.47
2022-09-04T22:29:08.269Z,101234.84
2022-09-04T22:31:40.451Z,101225.31
2022-09-04T22:34:15.369Z,101229.59
2022-09-04T22:36:28.321Z,101228.88
2022-09-04T22:38:32.683Z,101226.31
2022-09-04T22:40:56.429Z,101219.50
2022-09-04T22:43:11.656Z,101209.66
2022-09-04T22:45:53.328Z,101206.25
2022-09-04T22:48:40.921Z,101201.09
2022-09-04T22:50:50.167Z,101201.19
2022-09-04T22:53:22.745Z,101195.94
2022-09-04T22:56:22.798Z,101193.28
2022-09-04T22:58:38.300Z,101190.75
2022-09-04T23:01:36.761Z,101178.50
2022-09-04T23:04:23.970Z,101170.72
2022-09-04T23:11:59.936Z,101169.97
2022-09-04T23:13:50.644Z,101160.28
2022-09-04T23:13:56.345Z,101154.16
2022-09-04T23:14:55.110Z,101162.94
2022-09-04T23:17:28.991Z,101150.69
2022-09-04T23:23:05.126Z,101149.94
2022-09-04T23:26:44.303Z,101156.13
2022-09-04T23:26:50.900Z,101152.59
2022-09-04T23:27:57.732Z,101159.63
2022-09-04T23:30:12.660Z,101150.03
2022-09-04T23:32:31.830Z,101152.66
2022-09-04T23:35:13.915Z,101144.88
2022-09-04T23:38:00.485Z,101136.94
2022-09-04T23:40:29.075Z,101127.38
2022-09-04T23:42:50.772Z,101135.19
2022-09-04T23:45:29.953Z,101131.81
2022-09-04T23:47:58.812Z,101134.53
2022-09-04T23:50:19.182Z,101128.31
2022-09-04T23:52:34.044Z,101137.06
2022-09-04T23:55:03.456Z,101144.19
2022-09-04T23:57:26.909Z,101147.66
